Hauptseite
METAR-TAF:

METAR-TAF

Flughäfen :

Damaskus, Syrien

Flughafen Damaskus

Breite: 33-25N, Länge: 036-31E, Höhe: 608 m

Beobachtung

Neuester Wetterbericht von vor 44 Minuten, um 04:00 UTC
Wind 4 kt aus Nord
Temperatur 8°C
Luftfeuchtigkeit 42%
Luftdruck 1018 hPa
Sichtweite 10 km oder mehr
keine Wolken unter 1500 m und keine Kumulonimbus oder Gewitterwolken

METAR: OSDI 180400Z 01004KT CAVOK 08/M04 Q1018

Zeit: 06:44 (04:44 UTC)

Prognose

Gültige Prognose vom 18 um 00 UTC bis 19 um 06 UTC
Wind 3 kt aus unterschiedlichen Richtungen
Sichtweite 10 km oder mehr
keine Wolken unter 1500 m und keine Kumulonimbus oder Gewitterwolken
Zeitweise
vom 18 um 09 UTC bis 18 um 20 UTC
Wind 10 kt aus Südwest
Sichtweite 10 km oder mehr
Leicht bewölkt in der Höhe von 3000 ft

TAF: OSDI 1800/1906 VRB03KT CAVOK TEMPO 1809/1820 22010KT 9999 FEW030

Wetterbeobachtungen und Prognosen von mehr als 4000 Flughäfen (METAR und TAF Bericht).

Die verfügbaren Stationen werden durch gelbe und rote Markierungen auf der Karte dargestellt.

Führen Sie die Maus auf sie, um den Namen der Station zu sehen.

Darauf klicken, um die Beobachtung von Wetterbeobachtungen und Prognosen zu sehen.

Um die Karte zu ändern : klicken Sie auf den grünen Tasten mit einem schwarzen Kreuz Zum Vergrößern, auf den grünen Button mit einem Gedankenstrich zu verkleinern, oder auf die grünen Pfeile für benachbarte Karten.


METAR-TAF: